Time;durP1;ratioP1;P1;durP2;ratioP2;P2;SDS_P1;SDS_P2;PMS_P1;PMS_P2;Temp;Humidity;BMP_temperature;BMP_pressure;BME280_temperature;BME280_humidity;BME280_pressure;Samples;Min_cycle;Max_cycle;Signal;HPM_P1;HPM_P2
2023/12/10 00:02:19;;;;;;;42.55;37.78;;;11.30;99.90;;;;;;5032782;28;20033;-67
2023/12/10 00:04:45;;;;;;;44.28;39.67;;;11.30;99.90;;;;;;5019467;28;20041;-67
2023/12/10 00:07:11;;;;;;;42.90;38.45;;;11.30;99.90;;;;;;5032382;28;20049;-67
2023/12/10 00:09:37;;;;;;;41.78;38.17;;;11.30;99.90;;;;;;5020738;28;20042;-67
2023/12/10 00:12:04;;;;;;;48.80;43.90;;;11.40;99.90;;;;;;5031645;28;20033;-67
2023/12/10 00:14:30;;;;;;;55.38;49.60;;;11.30;99.90;;;;;;5033606;28;20056;-67
2023/12/10 00:16:56;;;;;;;53.08;47.63;;;11.30;99.90;;;;;;5031093;28;20398;-67
2023/12/10 00:19:22;;;;;;;60.50;55.22;;;11.30;99.90;;;;;;5033982;28;20029;-67
2023/12/10 00:21:49;;;;;;;62.05;56.72;;;11.30;99.90;;;;;;5033539;28;20041;-67
2023/12/10 00:24:15;;;;;;;64.88;59.45;;;11.30;99.90;;;;;;5034018;28;20426;-67
2023/12/10 00:26:41;;;;;;;53.13;47.78;;;11.30;99.90;;;;;;5024148;28;20057;-67
2023/12/10 00:29:07;;;;;;;55.70;49.22;;;11.30;99.90;;;;;;5027555;28;20030;-67
2023/12/10 00:31:33;;;;;;;51.97;46.92;;;11.20;99.90;;;;;;5013503;28;20042;-67
2023/12/10 00:33:59;;;;;;;54.47;49.30;;;11.30;99.90;;;;;;5026837;28;20057;-67
2023/12/10 00:36:26;;;;;;;59.35;52.83;;;11.30;99.90;;;;;;5030054;28;20042;-67
2023/12/10 00:38:55;;;;;;;45.47;39.45;;;11.40;99.90;;;;;;5033671;28;20033;-67
2023/12/10 00:41:21;;;;;;;51.17;38.53;;;11.30;99.90;;;;;;5027742;28;20046;-67
2023/12/10 00:43:47;;;;;;;46.95;37.67;;;11.30;99.90;;;;;;5027270;28;20053;-67
2023/12/10 00:46:13;;;;;;;45.67;40.35;;;11.30;99.90;;;;;;5028383;28;20057;-67
2023/12/10 00:48:40;;;;;;;44.35;39.40;;;11.30;99.90;;;;;;5029327;28;20025;-67
2023/12/10 00:51:06;;;;;;;49.47;44.35;;;11.30;99.90;;;;;;5032416;28;20052;-67
2023/12/10 00:53:32;;;;;;;65.75;59.22;;;11.20;99.90;;;;;;5031692;28;20048;-67
2023/12/10 00:55:58;;;;;;;75.82;69.10;;;11.20;99.90;;;;;;5022988;28;20513;-67
2023/12/10 00:58:25;;;;;;;70.10;63.28;;;11.20;99.90;;;;;;5032894;28;20036;-67
2023/12/10 01:00:51;;;;;;;88.93;82.22;;;11.20;99.90;;;;;;5021552;28;20037;-67
2023/12/10 01:03:18;;;;;;;76.47;69.35;;;11.20;99.90;;;;;;5028629;28;20049;-67
2023/12/10 01:05:44;;;;;;;87.28;79.53;;;11.20;99.90;;;;;;5030609;28;20052;-67
2023/12/10 01:08:11;;;;;;;62.55;57.05;;;11.20;99.90;;;;;;5017068;28;20053;-67
2023/12/10 01:10:37;;;;;;;72.32;65.82;;;11.20;99.90;;;;;;5020066;28;20049;-67
2023/12/10 01:13:03;;;;;;;77.55;70.70;;;11.20;99.90;;;;;;5020124;28;20037;-67
2023/12/10 01:15:29;;;;;;;101.05;93.82;;;11.10;99.90;;;;;;5024111;28;20041;-67
2023/12/10 01:18:00;;;;;;;102.18;94.35;;;11.20;99.90;;;;;;5027803;28;20032;-67
2023/12/10 01:20:33;;;;;;;112.07;104.50;;;11.20;99.90;;;;;;5027407;28;20557;-67
2023/12/10 01:22:59;;;;;;;98.55;91.40;;;11.20;99.90;;;;;;5026644;28;20040;-67
2023/12/10 01:25:25;;;;;;;71.82;64.82;;;11.20;99.90;;;;;;5026815;28;20029;-67
2023/12/10 01:27:52;;;;;;;79.53;73.15;;;11.10;99.90;;;;;;5031248;28;20030;-67
2023/12/10 01:30:23;;;;;;;55.10;49.15;;;11.10;99.90;;;;;;5019011;28;20030;-67
2023/12/10 01:32:58;;;;;;;68.70;61.95;;;11.10;99.90;;;;;;5026268;28;20053;-67
2023/12/10 01:35:25;;;;;;;43.53;38.92;;;11.20;99.90;;;;;;5024106;28;20084;-67
2023/12/10 01:37:51;;;;;;;51.15;46.05;;;11.10;99.90;;;;;;5025994;28;20045;-67
2023/12/10 01:40:17;;;;;;;43.50;35.88;;;11.00;99.90;;;;;;5021589;28;20030;-67
2023/12/10 01:42:45;;;;;;;44.42;34.90;;;11.00;99.90;;;;;;5029904;28;20052;-67
2023/12/10 01:45:12;;;;;;;48.50;38.35;;;11.00;99.90;;;;;;5016459;28;20036;-67
2023/12/10 01:47:41;;;;;;;54.92;49.65;;;11.00;99.90;;;;;;5022816;28;20064;-67
2023/12/10 01:50:15;;;;;;;50.10;45.00;;;11.00;99.90;;;;;;5026675;28;20490;-67
2023/12/10 01:52:45;;;;;;;51.97;44.28;;;11.00;99.90;;;;;;5021297;28;20042;-67
2023/12/10 01:55:11;;;;;;;46.50;39.95;;;11.00;99.90;;;;;;5027746;28;20037;-67
2023/12/10 01:57:38;;;;;;;62.65;56.67;;;11.00;99.90;;;;;;5017537;28;20057;-67
2023/12/10 02:00:08;;;;;;;60.95;54.78;;;11.00;99.90;;;;;;5017577;28;20021;-67
2023/12/10 02:02:35;;;;;;;57.40;49.70;;;11.00;99.90;;;;;;5027391;28;20414;-67
2023/12/10 02:05:04;;;;;;;64.72;58.83;;;11.00;99.90;;;;;;5021099;28;20033;-67
2023/12/10 02:07:31;;;;;;;83.47;76.25;;;11.00;99.90;;;;;;5028010;28;20053;-67
2023/12/10 02:09:57;;;;;;;110.15;101.63;;;11.00;99.90;;;;;;5021727;28;20060;-67
2023/12/10 02:12:23;;;;;;;134.38;124.82;;;10.90;99.90;;;;;;5015878;28;20493;-67
2023/12/10 02:14:50;;;;;;;112.85;104.57;;;11.00;99.90;;;;;;5029614;28;20041;-67
2023/12/10 02:17:16;;;;;;;75.18;68.53;;;11.00;99.90;;;;;;5025281;28;20044;-67
2023/12/10 02:19:42;;;;;;;66.10;60.00;;;11.10;99.90;;;;;;5014808;28;20038;-67
2023/12/10 02:22:11;;;;;;;63.80;57.05;;;11.10;99.90;;;;;;5023488;28;20359;-67
2023/12/10 02:24:54;;;;;;;54.35;48.95;;;11.10;99.90;;;;;;5012765;28;20037;-67
2023/12/10 02:27:20;;;;;;;42.13;37.17;;;11.00;99.90;;;;;;5026605;28;20355;-67
2023/12/10 02:29:49;;;;;;;40.10;34.65;;;11.00;99.90;;;;;;5025521;28;20030;-67
2023/12/10 02:32:15;;;;;;;42.92;35.90;;;11.00;99.90;;;;;;5016673;28;20540;-67
2023/12/10 02:34:41;;;;;;;46.58;37.38;;;11.00;99.90;;;;;;5023053;28;20419;-67
2023/12/10 02:37:07;;;;;;;41.42;34.08;;;11.00;99.90;;;;;;5026326;28;20041;-67
2023/12/10 02:39:33;;;;;;;43.08;38.60;;;11.00;99.90;;;;;;5016346;28;20026;-67
2023/12/10 02:41:59;;;;;;;39.05;34.90;;;11.00;99.90;;;;;;5026295;28;20454;-67
2023/12/10 02:44:25;;;;;;;55.47;36.53;;;11.00;99.90;;;;;;5030110;28;20033;-67
2023/12/10 02:46:51;;;;;;;43.35;34.40;;;11.00;99.90;;;;;;5030254;28;20041;-67
2023/12/10 02:49:18;;;;;;;48.70;41.47;;;11.00;99.90;;;;;;5015169;28;20045;-67
2023/12/10 02:51:44;;;;;;;53.25;34.00;;;10.90;99.90;;;;;;5016189;28;20042;-67
2023/12/10 02:54:10;;;;;;;38.72;34.88;;;10.90;99.90;;;;;;5020321;28;20037;-67
2023/12/10 02:56:36;;;;;;;46.78;36.78;;;10.90;99.90;;;;;;5028393;28;20060;-67
2023/12/10 02:59:02;;;;;;;52.53;44.47;;;10.80;99.90;;;;;;5021389;28;20037;-67
2023/12/10 03:01:28;;;;;;;65.18;59.03;;;10.80;99.90;;;;;;5020680;28;20061;-67
2023/12/10 03:03:54;;;;;;;105.18;97.43;;;10.80;99.90;;;;;;5021855;28;20042;-67
2023/12/10 03:06:20;;;;;;;98.53;91.22;;;10.70;99.90;;;;;;5016598;28;20038;-67
2023/12/10 03:08:46;;;;;;;100.15;92.70;;;10.70;99.90;;;;;;5017621;28;20037;-67
2023/12/10 03:11:12;;;;;;;92.97;85.10;;;10.70;99.90;;;;;;5022409;28;20042;-67
2023/12/10 03:13:39;;;;;;;93.82;85.75;;;10.60;99.90;;;;;;5033281;28;20505;-67
2023/12/10 03:16:05;;;;;;;84.35;77.20;;;10.60;99.90;;;;;;5021648;28;20101;-67
2023/12/10 03:18:31;;;;;;;68.35;62.58;;;10.60;99.90;;;;;;5028979;28;20041;-67
2023/12/10 03:20:57;;;;;;;48.00;31.05;;;10.60;99.90;;;;;;5026178;28;20030;-67
2023/12/10 03:23:23;;;;;;;40.83;31.35;;;10.60;99.90;;;;;;5029122;28;20032;-67
2023/12/10 03:25:49;;;;;;;40.78;29.50;;;10.50;99.90;;;;;;5018459;28;20037;-67
2023/12/10 03:28:15;;;;;;;41.83;30.25;;;10.50;99.90;;;;;;5015743;28;20033;-67
2023/12/10 03:30:41;;;;;;;35.47;27.10;;;10.50;99.90;;;;;;5018586;28;20045;-67
2023/12/10 03:33:08;;;;;;;36.78;26.45;;;10.50;99.90;;;;;;5026923;28;20482;-67
2023/12/10 03:35:34;;;;;;;41.10;28.25;;;10.50;99.90;;;;;;5022955;28;20049;-67
2023/12/10 03:38:00;;;;;;;38.28;26.45;;;10.50;99.90;;;;;;5027242;28;20038;-67
2023/12/10 03:40:26;;;;;;;40.28;24.42;;;10.60;99.90;;;;;;5029572;28;20026;-67
2023/12/10 03:42:52;;;;;;;43.15;34.80;;;10.60;99.90;;;;;;5024751;28;20025;-67
2023/12/10 03:45:18;;;;;;;44.95;36.00;;;10.60;99.90;;;;;;5024358;28;20486;-67
2023/12/10 03:47:46;;;;;;;35.45;27.88;;;10.60;99.90;;;;;;5028336;28;20722;-67
2023/12/10 03:50:13;;;;;;;44.28;34.42;;;10.60;99.90;;;;;;5022624;28;20033;-67
2023/12/10 03:52:40;;;;;;;54.50;49.05;;;10.60;99.90;;;;;;5029336;28;20052;-67
2023/12/10 03:55:07;;;;;;;66.38;61.20;;;10.60;99.90;;;;;;5015719;28;20045;-67
2023/12/10 03:57:33;;;;;;;76.75;69.68;;;10.60;99.90;;;;;;5029455;28;20045;-67
2023/12/10 04:00:00;;;;;;;95.25;87.80;;;10.60;99.90;;;;;;5016538;28;20036;-67
2023/12/10 04:02:26;;;;;;;88.10;81.18;;;10.60;99.90;;;;;;5016853;28;20033;-67
2023/12/10 04:04:52;;;;;;;93.30;86.20;;;10.60;99.90;;;;;;5017493;28;20041;-67
2023/12/10 04:07:18;;;;;;;150.55;140.38;;;10.50;99.90;;;;;;5025874;28;20044;-67
2023/12/10 04:09:44;;;;;;;50.65;45.55;;;10.40;99.90;;;;;;5033760;28;20477;-67
2023/12/10 04:12:10;;;;;;;78.70;71.97;;;10.40;99.90;;;;;;5023713;28;20045;-67
2023/12/10 04:14:37;;;;;;;71.80;64.57;;;10.40;99.90;;;;;;5029765;28;20517;-67
2023/12/10 04:17:04;;;;;;;92.43;84.45;;;10.50;99.90;;;;;;5023962;28;20475;-67
2023/12/10 04:19:30;;;;;;;82.93;74.80;;;10.50;99.90;;;;;;5026510;28;20478;-67
2023/12/10 04:21:56;;;;;;;148.18;136.88;;;10.50;99.90;;;;;;5032798;28;20038;-67
2023/12/10 04:24:22;;;;;;;59.47;53.10;;;10.50;99.90;;;;;;5018554;28;20394;-67
2023/12/10 04:26:48;;;;;;;60.60;54.10;;;10.40;99.90;;;;;;5028075;28;20044;-67
2023/12/10 04:29:14;;;;;;;59.65;51.25;;;10.50;99.90;;;;;;5022539;28;20030;-67
2023/12/10 04:31:40;;;;;;;76.38;68.68;;;10.50;99.90;;;;;;5028672;28;20033;-67
2023/12/10 04:34:06;;;;;;;156.35;144.43;;;10.40;99.90;;;;;;5029076;28;20049;-67
2023/12/10 04:36:32;;;;;;;69.22;59.60;;;10.50;99.90;;;;;;5029590;28;20045;-67
2023/12/10 04:38:59;;;;;;;74.55;66.72;;;10.50;99.90;;;;;;5030748;28;20025;-67
2023/12/10 04:41:25;;;;;;;81.43;73.10;;;10.50;99.90;;;;;;5032969;28;20056;-67
2023/12/10 04:43:52;;;;;;;73.45;66.57;;;10.50;99.90;;;;;;5033537;28;20385;-67
2023/12/10 04:46:18;;;;;;;86.43;77.45;;;10.60;99.90;;;;;;5022979;28;20042;-67
2023/12/10 04:48:45;;;;;;;71.38;64.32;;;10.60;99.90;;;;;;5023923;28;20395;-67
2023/12/10 04:51:11;;;;;;;68.50;61.13;;;10.60;99.90;;;;;;5017619;28;20038;-67
2023/12/10 04:53:37;;;;;;;53.00;46.60;;;10.70;99.90;;;;;;5016439;28;20030;-67
2023/12/10 04:56:04;;;;;;;63.20;47.58;;;10.60;99.90;;;;;;5017788;28;20037;-67
2023/12/10 04:58:30;;;;;;;62.50;43.58;;;10.70;99.90;;;;;;5020286;28;20394;-67
2023/12/10 05:00:56;;;;;;;74.22;67.00;;;10.70;99.90;;;;;;5020160;28;20033;-67
2023/12/10 05:03:22;;;;;;;76.80;68.70;;;10.70;99.90;;;;;;5017105;28;20036;-67
2023/12/10 05:05:48;;;;;;;60.47;40.67;;;10.70;99.90;;;;;;5020954;28;20037;-67
2023/12/10 05:08:14;;;;;;;46.38;29.52;;;10.70;99.90;;;;;;5028969;28;20025;-67
2023/12/10 05:10:40;;;;;;;50.42;31.95;;;10.70;99.90;;;;;;5026324;28;20402;-66
2023/12/10 05:13:06;;;;;;;46.38;37.50;;;10.80;99.90;;;;;;5032419;28;20044;-66
2023/12/10 05:15:34;;;;;;;65.03;57.97;;;10.80;99.90;;;;;;5028390;28;20037;-66
2023/12/10 05:18:03;;;;;;;60.47;54.20;;;10.80;99.90;;;;;;5031118;28;20056;-66
2023/12/10 05:20:30;;;;;;;63.92;47.92;;;10.80;99.90;;;;;;5028012;28;20041;-66
2023/12/10 05:22:58;;;;;;;60.63;36.85;;;10.80;99.90;;;;;;5026484;28;20037;-66
2023/12/10 05:25:27;;;;;;;58.15;46.72;;;10.80;99.90;;;;;;5020770;28;20479;-66
2023/12/10 05:27:54;;;;;;;54.65;48.22;;;10.80;99.90;;;;;;5031971;28;20037;-66
2023/12/10 05:30:20;;;;;;;98.55;53.70;;;10.80;99.90;;;;;;5031579;28;20041;-66
2023/12/10 05:32:47;;;;;;;54.58;43.10;;;10.80;99.90;;;;;;5027126;28;20038;-66
2023/12/10 05:35:13;;;;;;;55.33;36.47;;;10.80;99.90;;;;;;5031391;28;20038;-66
2023/12/10 05:37:39;;;;;;;49.80;33.67;;;10.90;99.90;;;;;;5020607;28;20054;-66
2023/12/10 05:40:06;;;;;;;52.63;38.70;;;10.90;99.90;;;;;;5011324;28;20034;-66
2023/12/10 05:42:32;;;;;;;51.40;33.33;;;10.90;99.90;;;;;;5022891;28;20042;-67
2023/12/10 05:44:58;;;;;;;58.80;44.65;;;10.90;99.90;;;;;;5032399;28;20025;-66
2023/12/10 05:47:24;;;;;;;53.90;44.53;;;10.90;99.90;;;;;;5030733;28;20048;-66
2023/12/10 05:49:51;;;;;;;60.90;48.17;;;10.90;99.90;;;;;;5030255;28;20482;-66
2023/12/10 05:52:17;;;;;;;50.35;44.55;;;11.00;99.90;;;;;;5031865;28;20033;-66
2023/12/10 05:54:43;;;;;;;46.38;37.88;;;10.90;99.90;;;;;;5019732;28;20395;-67
2023/12/10 05:57:09;;;;;;;50.63;40.85;;;10.90;99.90;;;;;;5028945;28;20120;-67
2023/12/10 05:59:35;;;;;;;55.78;43.20;;;11.00;99.90;;;;;;5028536;28;20037;-67
2023/12/10 06:02:01;;;;;;;61.63;56.05;;;11.00;99.90;;;;;;5026389;28;20040;-67
2023/12/10 06:04:27;;;;;;;92.78;84.25;;;11.00;99.90;;;;;;5031894;28;20037;-67
2023/12/10 06:06:54;;;;;;;45.65;36.85;;;11.10;99.90;;;;;;5031613;28;20041;-66
2023/12/10 06:09:20;;;;;;;95.70;88.70;;;11.10;99.90;;;;;;5031784;28;20056;-67
2023/12/10 06:11:46;;;;;;;89.03;81.70;;;11.10;99.90;;;;;;5031896;28;20049;-67
2023/12/10 06:14:12;;;;;;;103.68;95.70;;;11.20;99.90;;;;;;5031946;28;20030;-67
2023/12/10 06:16:38;;;;;;;66.00;59.65;;;11.20;99.90;;;;;;5019520;28;20046;-67
2023/12/10 06:19:04;;;;;;;176.90;164.27;;;11.20;99.90;;;;;;5012166;28;20041;-67
2023/12/10 06:21:32;;;;;;;122.35;113.13;;;11.20;99.90;;;;;;5012023;28;20474;-67
2023/12/10 06:23:58;;;;;;;140.68;130.90;;;11.20;99.90;;;;;;5012553;28;20048;-67
2023/12/10 06:26:24;;;;;;;70.05;62.60;;;11.10;99.90;;;;;;5012151;28;20038;-67
2023/12/10 06:28:50;;;;;;;88.88;81.53;;;11.00;99.90;;;;;;5023155;28;20045;-67
2023/12/10 06:31:16;;;;;;;97.93;90.35;;;11.10;99.90;;;;;;5031275;28;20030;-67
2023/12/10 06:33:44;;;;;;;149.95;139.70;;;11.10;99.90;;;;;;5031596;28;20514;-67
2023/12/10 06:36:10;;;;;;;174.10;162.35;;;11.00;99.90;;;;;;5023151;28;20389;-67
2023/12/10 06:38:37;;;;;;;122.10;112.93;;;11.00;99.90;;;;;;5031750;28;20042;-67
2023/12/10 06:41:03;;;;;;;85.95;77.30;;;11.00;99.90;;;;;;5031533;28;20100;-67
2023/12/10 06:43:29;;;;;;;89.93;81.85;;;11.00;99.90;;;;;;5031893;28;20081;-67
2023/12/10 06:45:58;;;;;;;109.55;101.25;;;11.00;99.90;;;;;;5031094;28;20038;-67
2023/12/10 06:48:25;;;;;;;99.50;91.25;;;11.00;99.90;;;;;;5034762;28;20048;-66
2023/12/10 06:50:52;;;;;;;105.55;96.55;;;11.00;99.90;;;;;;5034875;28;20363;-67
2023/12/10 06:53:18;;;;;;;101.95;93.78;;;11.00;99.90;;;;;;5035724;28;20466;-67
2023/12/10 06:55:44;;;;;;;107.63;99.47;;;11.00;99.90;;;;;;5035459;28;20029;-67
2023/12/10 06:58:10;;;;;;;108.63;98.95;;;11.00;99.90;;;;;;5035423;28;20048;-67
2023/12/10 07:00:36;;;;;;;134.30;124.55;;;11.00;99.90;;;;;;5034703;28;20044;-67
2023/12/10 07:03:03;;;;;;;141.90;131.25;;;11.10;99.90;;;;;;5035199;28;20386;-67
2023/12/10 07:05:29;;;;;;;131.02;121.25;;;11.10;99.90;;;;;;5035185;28;20029;-67
2023/12/10 07:07:55;;;;;;;145.02;134.77;;;11.10;99.90;;;;;;5035346;28;20030;-67
2023/12/10 07:10:21;;;;;;;174.95;162.55;;;11.00;99.90;;;;;;5035010;28;20029;-67
2023/12/10 07:12:51;;;;;;;153.18;142.43;;;11.00;99.90;;;;;;5035470;28;20386;-67
2023/12/10 07:15:17;;;;;;;145.75;135.25;;;11.00;99.90;;;;;;5033148;28;20042;-67
2023/12/10 07:17:44;;;;;;;160.02;149.38;;;10.90;99.90;;;;;;5015110;28;20402;-67
2023/12/10 07:20:11;;;;;;;130.13;120.22;;;10.90;99.90;;;;;;5015024;28;20041;-67
2023/12/10 07:22:37;;;;;;;138.85;128.35;;;10.90;99.90;;;;;;5013799;28;20497;-67
2023/12/10 07:25:06;;;;;;;133.75;123.63;;;10.90;99.90;;;;;;5015344;28;20034;-67
2023/12/10 07:27:32;;;;;;;153.43;142.75;;;10.90;99.90;;;;;;5015177;28;20029;-66
2023/12/10 07:29:58;;;;;;;173.82;161.63;;;10.90;99.90;;;;;;5015103;28;20040;-67
2023/12/10 07:32:25;;;;;;;160.98;149.43;;;10.90;99.90;;;;;;5014534;28;20049;-67
2023/12/10 07:34:51;;;;;;;179.75;166.77;;;11.00;99.90;;;;;;5018905;28;20037;-67
2023/12/10 07:37:17;;;;;;;161.00;149.07;;;11.00;99.90;;;;;;5034743;28;20034;-67
2023/12/10 07:39:43;;;;;;;165.07;154.32;;;11.00;99.90;;;;;;5034947;28;20021;-67
2023/12/10 07:42:09;;;;;;;214.20;199.65;;;11.00;99.90;;;;;;5027228;28;20037;-67
2023/12/10 07:44:35;;;;;;;192.77;179.98;;;11.00;99.90;;;;;;5016315;28;20038;-67
2023/12/10 07:47:02;;;;;;;179.93;168.23;;;10.90;99.90;;;;;;5014070;28;20030;-67
2023/12/10 07:49:28;;;;;;;171.45;158.43;;;10.90;99.90;;;;;;5015201;28;20471;-67
2023/12/10 07:51:54;;;;;;;152.20;140.32;;;10.90;99.90;;;;;;5026227;28;20679;-67
2023/12/10 07:54:20;;;;;;;193.50;180.20;;;11.00;99.90;;;;;;5034466;28;20044;-67
2023/12/10 07:56:46;;;;;;;142.70;131.90;;;11.00;99.90;;;;;;5025473;28;20049;-67
2023/12/10 07:59:12;;;;;;;157.05;145.02;;;10.90;99.90;;;;;;5015262;28;20033;-67
2023/12/10 08:01:39;;;;;;;143.88;133.50;;;10.90;99.90;;;;;;5033499;28;20037;-67
2023/12/10 08:04:06;;;;;;;141.50;130.60;;;10.90;99.90;;;;;;5021198;28;20041;-67
2023/12/10 08:06:32;;;;;;;152.30;141.45;;;10.90;99.90;;;;;;5019575;28;20052;-67
2023/12/10 08:08:59;;;;;;;149.18;137.82;;;10.80;99.90;;;;;;5034124;28;20033;-67
2023/12/10 08:11:26;;;;;;;140.23;129.65;;;10.80;99.90;;;;;;5033773;28;20050;-67
2023/12/10 08:13:52;;;;;;;154.80;144.02;;;10.90;99.90;;;;;;5033700;28;20041;-67
2023/12/10 08:16:18;;;;;;;177.10;163.93;;;10.90;99.90;;;;;;5032372;28;20038;-67
2023/12/10 08:18:44;;;;;;;207.55;193.52;;;10.90;99.90;;;;;;5034120;28;20076;-67
2023/12/10 08:21:10;;;;;;;196.98;183.80;;;11.00;99.90;;;;;;5034130;28;20045;-67
2023/12/10 08:23:36;;;;;;;229.93;213.75;;;11.00;99.90;;;;;;5034089;28;20385;-67
2023/12/10 08:26:03;;;;;;;124.65;91.88;;;11.00;99.90;;;;;;5033073;28;20389;-70
2023/12/10 08:28:29;;;;;;;104.32;95.65;;;11.10;99.90;;;;;;5022045;28;20045;-67
2023/12/10 08:30:56;;;;;;;79.43;71.82;;;11.20;99.90;;;;;;5030563;28;20029;-66
2023/12/10 08:33:22;;;;;;;85.15;76.78;;;11.20;99.90;;;;;;5022448;28;20049;-67
2023/12/10 08:35:48;;;;;;;114.28;104.25;;;11.10;99.90;;;;;;5033434;28;20474;-67
2023/12/10 08:38:14;;;;;;;173.70;161.48;;;11.00;99.90;;;;;;5031690;28;20049;-67
2023/12/10 08:40:40;;;;;;;155.93;144.20;;;10.90;99.90;;;;;;5033077;28;20041;-67
2023/12/10 08:43:06;;;;;;;170.50;157.93;;;10.90;99.90;;;;;;5033701;28;20041;-67
2023/12/10 08:45:32;;;;;;;171.35;158.93;;;10.80;99.90;;;;;;5032169;28;20045;-68
2023/12/10 08:47:58;;;;;;;181.50;168.40;;;10.80;99.90;;;;;;5031403;28;20040;-67
2023/12/10 08:50:24;;;;;;;154.15;143.65;;;10.80;99.90;;;;;;5032265;28;20037;-67
2023/12/10 08:52:50;;;;;;;131.20;121.07;;;10.80;99.90;;;;;;5032828;28;20041;-67
2023/12/10 08:55:17;;;;;;;138.40;127.03;;;10.80;99.90;;;;;;5033088;28;20038;-67
2023/12/10 08:57:44;;;;;;;137.27;125.50;;;10.80;99.90;;;;;;5033064;28;20046;-67
2023/12/10 09:00:11;;;;;;;203.75;189.88;;;10.70;99.90;;;;;;5031997;28;20049;-67
2023/12/10 09:02:37;;;;;;;165.55;154.07;;;10.80;99.90;;;;;;5012925;28;20053;-68
2023/12/10 09:05:03;;;;;;;175.05;162.50;;;10.80;99.90;;;;;;5011896;28;20482;-67
2023/12/10 09:07:29;;;;;;;157.32;145.77;;;10.90;99.90;;;;;;5031820;28;20048;-67
2023/12/10 09:09:59;;;;;;;159.40;147.63;;;10.90;99.90;;;;;;5031950;28;20359;-67
2023/12/10 09:12:27;;;;;;;169.10;157.07;;;11.00;99.90;;;;;;5030832;28;20072;-67
2023/12/10 09:14:53;;;;;;;182.73;169.07;;;11.10;99.90;;;;;;5032185;28;20135;-68
2023/12/10 09:17:22;;;;;;;175.00;162.95;;;11.00;99.90;;;;;;5014210;28;20052;-68
2023/12/10 09:19:48;;;;;;;163.68;152.48;;;11.10;99.90;;;;;;5011426;28;20057;-68
2023/12/10 09:22:15;;;;;;;190.68;177.23;;;11.20;99.90;;;;;;5012391;28;20030;-68
2023/12/10 09:24:41;;;;;;;131.60;121.00;;;11.30;99.90;;;;;;5021639;28;20053;-68
2023/12/10 09:27:07;;;;;;;151.57;140.38;;;11.30;99.90;;;;;;5031521;28;20029;-68
2023/12/10 09:29:38;;;;;;;73.47;66.18;;;11.40;99.90;;;;;;5015224;28;20029;-68
2023/12/10 09:32:08;;;;;;;76.82;69.30;;;11.40;99.90;;;;;;5030887;28;20231;-68
2023/12/10 09:34:34;;;;;;;69.63;60.65;;;11.50;99.90;;;;;;5031226;28;20513;-68
2023/12/10 09:37:01;;;;;;;60.05;48.80;;;11.60;99.90;;;;;;5029581;28;20615;-68
2023/12/10 09:39:27;;;;;;;67.07;60.17;;;11.60;99.90;;;;;;5028689;28;20490;-68
2023/12/10 09:41:53;;;;;;;88.13;79.80;;;11.60;99.90;;;;;;5029501;28;20033;-68
2023/12/10 09:44:19;;;;;;;90.25;82.57;;;11.70;99.90;;;;;;5031744;28;20382;-68
2023/12/10 09:46:45;;;;;;;74.88;67.63;;;11.80;99.90;;;;;;5026571;28;20041;-68
2023/12/10 09:49:13;;;;;;;70.70;63.75;;;11.80;99.90;;;;;;5027860;28;20022;-68
2023/12/10 09:51:39;;;;;;;98.70;90.70;;;11.80;99.90;;;;;;5012715;28;20191;-68
2023/12/10 09:54:07;;;;;;;91.10;82.90;;;11.80;99.90;;;;;;5030540;28;20025;-68
2023/12/10 09:56:33;;;;;;;89.00;81.30;;;11.90;99.90;;;;;;5030888;28;20045;-68
2023/12/10 09:58:59;;;;;;;82.53;74.72;;;11.90;99.90;;;;;;5029288;28;20092;-68
2023/12/10 10:01:25;;;;;;;93.75;85.30;;;11.90;99.90;;;;;;5030240;28;20414;-68
2023/12/10 10:03:51;;;;;;;119.15;109.32;;;11.90;99.90;;;;;;5028828;28;20041;-68
2023/12/10 10:06:17;;;;;;;128.35;118.85;;;11.90;99.90;;;;;;5031455;28;20541;-68
2023/12/10 10:08:43;;;;;;;93.97;85.97;;;11.90;99.90;;;;;;5031320;28;20037;-68
2023/12/10 10:11:09;;;;;;;63.72;46.08;;;11.80;99.90;;;;;;5030998;28;20022;-68
2023/12/10 10:13:36;;;;;;;92.78;83.68;;;11.80;99.90;;;;;;5031947;28;20033;-68
2023/12/10 10:16:10;;;;;;;131.02;120.03;;;11.90;99.90;;;;;;5023725;28;20042;-68
2023/12/10 10:18:41;;;;;;;117.65;107.50;;;11.90;99.90;;;;;;5028505;28;20058;-68
2023/12/10 10:21:07;;;;;;;102.47;92.80;;;11.80;99.90;;;;;;5032457;28;20393;-68
2023/12/10 10:23:34;;;;;;;88.75;80.63;;;11.80;99.90;;;;;;5035669;28;20050;-68
2023/12/10 10:26:00;;;;;;;72.75;65.30;;;11.80;99.90;;;;;;5033684;28;20029;-68
2023/12/10 10:28:27;;;;;;;70.75;63.88;;;11.80;99.90;;;;;;5035283;28;20052;-68
2023/12/10 10:30:55;;;;;;;64.95;58.35;;;11.90;99.90;;;;;;5034079;28;20059;-68
2023/12/10 10:33:21;;;;;;;83.15;72.70;;;11.90;99.90;;;;;;5034333;28;20042;-68
2023/12/10 10:35:49;;;;;;;79.13;67.85;;;12.00;99.90;;;;;;5034076;28;20037;-68
2023/12/10 10:38:16;;;;;;;88.65;80.75;;;12.00;99.90;;;;;;5030306;28;20053;-68
2023/12/10 10:40:42;;;;;;;84.43;75.88;;;12.00;99.90;;;;;;5024982;28;20049;-68
2023/12/10 10:43:08;;;;;;;75.20;67.63;;;12.00;99.90;;;;;;5035519;28;20037;-68
2023/12/10 10:45:34;;;;;;;73.32;65.00;;;12.00;99.90;;;;;;5034024;28;20053;-68
2023/12/10 10:48:01;;;;;;;88.97;80.10;;;12.10;99.90;;;;;;5034946;28;20041;-68
2023/12/10 10:50:27;;;;;;;114.80;104.82;;;12.10;99.90;;;;;;5033046;28;20613;-68
2023/12/10 10:52:54;;;;;;;114.82;105.82;;;12.10;99.90;;;;;;5032771;28;20025;-68
2023/12/10 10:55:20;;;;;;;79.03;71.82;;;12.20;99.90;;;;;;5031767;28;20050;-68
2023/12/10 10:57:46;;;;;;;85.22;77.13;;;12.20;99.90;;;;;;5028976;28;20048;-68
2023/12/10 11:00:18;;;;;;;86.63;78.03;;;12.20;99.90;;;;;;5032885;28;20468;-68
2023/12/10 11:02:49;;;;;;;101.45;92.50;;;12.20;99.90;;;;;;5032523;28;20076;-68
2023/12/10 11:05:32;;;;;;;90.13;83.20;;;12.20;99.90;;;;;;5033314;28;20482;-68
2023/12/10 11:07:58;;;;;;;85.38;77.43;;;12.20;99.90;;;;;;5031321;28;20038;-68
2023/12/10 11:10:24;;;;;;;79.25;73.20;;;12.30;99.90;;;;;;5030700;28;20041;-67
2023/12/10 11:12:51;;;;;;;79.05;71.90;;;12.20;99.90;;;;;;5033034;28;20026;-68
2023/12/10 11:15:17;;;;;;;73.55;67.25;;;12.20;99.90;;;;;;5031936;28;20030;-68
2023/12/10 11:17:52;;;;;;;76.03;69.32;;;12.20;99.90;;;;;;5015127;28;20042;-68
2023/12/10 11:20:41;;;;;;;71.38;65.22;;;12.20;99.90;;;;;;5025680;28;20461;-68
2023/12/10 11:23:12;;;;;;;69.55;63.50;;;12.20;99.90;;;;;;5033099;28;21238;-68
2023/12/10 11:25:38;;;;;;;68.20;62.03;;;12.20;99.90;;;;;;5033521;28;20113;-68
2023/12/10 11:28:11;;;;;;;74.85;68.80;;;12.20;99.90;;;;;;5033015;28;20492;-67
2023/12/10 11:30:39;;;;;;;73.15;66.72;;;12.20;99.90;;;;;;5032378;28;20026;-67
2023/12/10 11:33:06;;;;;;;77.53;70.57;;;12.20;99.90;;;;;;5031553;28;20060;-67
2023/12/10 11:35:32;;;;;;;91.60;83.88;;;12.20;99.90;;;;;;5033167;28;20033;-67
2023/12/10 11:37:58;;;;;;;97.07;90.00;;;12.20;99.90;;;;;;5030063;28;20053;-68
2023/12/10 11:40:25;;;;;;;112.00;104.22;;;12.30;99.90;;;;;;5016050;28;20042;-68
2023/12/10 11:42:51;;;;;;;112.43;104.95;;;12.30;99.90;;;;;;5032971;28;20417;-68
2023/12/10 11:45:17;;;;;;;119.40;111.63;;;12.30;99.90;;;;;;5029421;28;20071;-67
2023/12/10 11:47:44;;;;;;;138.10;129.13;;;12.30;99.90;;;;;;5029836;28;20517;-68
2023/12/10 11:50:11;;;;;;;129.82;121.45;;;12.30;99.90;;;;;;5032520;28;20042;-68
2023/12/10 11:52:39;;;;;;;143.90;135.18;;;12.30;99.90;;;;;;5033554;28;20037;-68
2023/12/10 11:55:08;;;;;;;138.07;129.57;;;12.30;99.90;;;;;;5033746;28;20037;-68
2023/12/10 11:57:41;;;;;;;133.60;125.68;;;12.40;99.90;;;;;;5032798;28;20426;-67
2023/12/10 12:00:08;;;;;;;140.82;132.25;;;12.40;99.90;;;;;;5013479;28;20038;-68
2023/12/10 12:02:43;;;;;;;144.82;136.35;;;12.40;99.90;;;;;;5028919;28;20036;-68
2023/12/10 12:05:10;;;;;;;145.35;136.23;;;12.40;99.90;;;;;;5031791;28;20048;-66
2023/12/10 12:07:37;;;;;;;155.68;146.55;;;12.50;99.90;;;;;;5026505;28;20374;-67
2023/12/10 12:10:04;;;;;;;142.30;134.23;;;12.50;99.90;;;;;;5033051;28;20038;-67
2023/12/10 12:12:30;;;;;;;159.93;150.70;;;12.60;99.90;;;;;;5032059;28;20028;-67
2023/12/10 12:14:57;;;;;;;136.45;128.57;;;12.60;99.90;;;;;;5015972;28;20045;-67
2023/12/10 12:17:23;;;;;;;141.48;133.82;;;12.60;99.90;;;;;;5031581;28;20042;-66
2023/12/10 12:19:49;;;;;;;135.57;127.78;;;12.60;99.90;;;;;;5031477;28;20575;-66